sensor_id;sensor_type;location;lat;lon;timestamp;P1;durP1;ratioP1;P2;durP2;ratioP2
41964;SDS011;50120;53.250;8.702;2022-08-02T00:01:00;4.65;;;2.33;;
41964;SDS011;50120;53.250;8.702;2022-08-02T00:03:26;5.93;;;2.20;;
41964;SDS011;50120;53.250;8.702;2022-08-02T00:05:52;5.90;;;2.22;;
41964;SDS011;50120;53.250;8.702;2022-08-02T00:08:17;7.07;;;2.20;;
41964;SDS011;50120;53.250;8.702;2022-08-02T00:10:43;5.70;;;2.50;;
41964;SDS011;50120;53.250;8.702;2022-08-02T00:13:09;5.72;;;2.70;;
41964;SDS011;50120;53.250;8.702;2022-08-02T00:15:35;5.85;;;2.67;;
41964;SDS011;50120;53.250;8.702;2022-08-02T00:18:00;6.93;;;2.50;;
41964;SDS011;50120;53.250;8.702;2022-08-02T00:20:26;11.85;;;2.72;;
41964;SDS011;50120;53.250;8.702;2022-08-02T00:22:52;6.45;;;2.42;;
41964;SDS011;50120;53.250;8.702;2022-08-02T00:25:17;4.70;;;2.40;;
41964;SDS011;50120;53.250;8.702;2022-08-02T00:27:43;8.15;;;2.38;;
41964;SDS011;50120;53.250;8.702;2022-08-02T00:30:09;5.60;;;2.22;;
41964;SDS011;50120;53.250;8.702;2022-08-02T00:32:35;8.57;;;2.20;;
41964;SDS011;50120;53.250;8.702;2022-08-02T00:35:01;4.32;;;2.28;;
41964;SDS011;50120;53.250;8.702;2022-08-02T00:37:27;4.53;;;2.30;;
41964;SDS011;50120;53.250;8.702;2022-08-02T00:39:52;5.93;;;2.10;;
41964;SDS011;50120;53.250;8.702;2022-08-02T00:42:18;7.25;;;2.30;;
41964;SDS011;50120;53.250;8.702;2022-08-02T00:44:44;6.18;;;2.35;;
41964;SDS011;50120;53.250;8.702;2022-08-02T00:47:10;6.57;;;2.38;;
41964;SDS011;50120;53.250;8.702;2022-08-02T00:49:35;4.00;;;2.13;;
41964;SDS011;50120;53.250;8.702;2022-08-02T00:52:02;8.27;;;2.13;;
41964;SDS011;50120;53.250;8.702;2022-08-02T00:54:28;8.95;;;2.35;;
41964;SDS011;50120;53.250;8.702;2022-08-02T00:56:53;6.00;;;2.30;;
41964;SDS011;50120;53.250;8.702;2022-08-02T00:59:19;3.33;;;2.17;;
41964;SDS011;50120;53.250;8.702;2022-08-02T01:01:47;3.88;;;2.22;;
41964;SDS011;50120;53.250;8.702;2022-08-02T01:04:14;3.67;;;2.10;;
41964;SDS011;50120;53.250;8.702;2022-08-02T01:06:40;8.13;;;2.55;;
41964;SDS011;50120;53.250;8.702;2022-08-02T01:09:06;5.32;;;2.50;;
41964;SDS011;50120;53.250;8.702;2022-08-02T01:11:33;4.57;;;2.53;;
41964;SDS011;50120;53.250;8.702;2022-08-02T01:14:09;4.70;;;2.28;;
41964;SDS011;50120;53.250;8.702;2022-08-02T01:16:38;3.47;;;2.38;;
41964;SDS011;50120;53.250;8.702;2022-08-02T01:30:40;6.97;;;2.55;;
41964;SDS011;50120;53.250;8.702;2022-08-02T01:33:08;6.22;;;2.55;;
41964;SDS011;50120;53.250;8.702;2022-08-02T01:35:41;4.45;;;2.10;;
41964;SDS011;50120;53.250;8.702;2022-08-02T01:38:21;8.07;;;2.63;;
41964;SDS011;50120;53.250;8.702;2022-08-02T01:40:50;7.47;;;2.38;;
41964;SDS011;50120;53.250;8.702;2022-08-02T01:43:17;5.75;;;2.45;;
41964;SDS011;50120;53.250;8.702;2022-08-02T01:45:46;5.43;;;2.95;;
41964;SDS011;50120;53.250;8.702;2022-08-02T01:48:12;5.65;;;2.45;;
41964;SDS011;50120;53.250;8.702;2022-08-02T01:50:40;7.28;;;2.78;;
41964;SDS011;50120;53.250;8.702;2022-08-02T01:53:08;9.32;;;2.92;;
41964;SDS011;50120;53.250;8.702;2022-08-02T01:55:39;10.55;;;2.70;;
41964;SDS011;50120;53.250;8.702;2022-08-02T01:58:07;6.97;;;2.90;;
41964;SDS011;50120;53.250;8.702;2022-08-02T02:00:39;7.50;;;2.78;;
41964;SDS011;50120;53.250;8.702;2022-08-02T02:03:08;5.80;;;2.80;;
41964;SDS011;50120;53.250;8.702;2022-08-02T02:05:37;4.82;;;3.05;;
41964;SDS011;50120;53.250;8.702;2022-08-02T02:08:04;4.88;;;3.10;;
41964;SDS011;50120;53.250;8.702;2022-08-02T02:10:32;5.07;;;3.03;;
41964;SDS011;50120;53.250;8.702;2022-08-02T02:13:06;6.22;;;3.00;;
41964;SDS011;50120;53.250;8.702;2022-08-02T02:15:38;6.47;;;3.20;;
41964;SDS011;50120;53.250;8.702;2022-08-02T02:18:07;6.75;;;3.20;;
41964;SDS011;50120;53.250;8.702;2022-08-02T02:20:34;7.07;;;3.40;;
41964;SDS011;50120;53.250;8.702;2022-08-02T02:23:00;9.73;;;3.00;;
41964;SDS011;50120;53.250;8.702;2022-08-02T02:25:26;9.57;;;3.40;;
41964;SDS011;50120;53.250;8.702;2022-08-02T02:28:02;7.97;;;3.22;;
41964;SDS011;50120;53.250;8.702;2022-08-02T02:30:31;5.22;;;3.30;;
41964;SDS011;50120;53.250;8.702;2022-08-02T02:32:59;4.93;;;2.75;;
41964;SDS011;50120;53.250;8.702;2022-08-02T02:35:28;7.15;;;3.65;;
41964;SDS011;50120;53.250;8.702;2022-08-02T02:37:57;8.95;;;3.53;;
41964;SDS011;50120;53.250;8.702;2022-08-02T02:40:26;9.45;;;3.30;;
41964;SDS011;50120;53.250;8.702;2022-08-02T02:42:53;9.90;;;3.30;;
41964;SDS011;50120;53.250;8.702;2022-08-02T02:45:22;7.70;;;3.72;;
41964;SDS011;50120;53.250;8.702;2022-08-02T02:47:49;7.35;;;3.08;;
41964;SDS011;50120;53.250;8.702;2022-08-02T02:50:16;5.88;;;3.08;;
41964;SDS011;50120;53.250;8.702;2022-08-02T02:52:42;5.43;;;3.20;;
41964;SDS011;50120;53.250;8.702;2022-08-02T02:55:09;11.60;;;4.10;;
41964;SDS011;50120;53.250;8.702;2022-08-02T02:57:36;8.90;;;3.40;;
41964;SDS011;50120;53.250;8.702;2022-08-02T03:00:07;7.68;;;3.30;;
41964;SDS011;50120;53.250;8.702;2022-08-02T03:02:38;5.88;;;3.05;;
41964;SDS011;50120;53.250;8.702;2022-08-02T03:05:05;12.35;;;4.00;;
41964;SDS011;50120;53.250;8.702;2022-08-02T03:07:33;7.13;;;3.53;;
41964;SDS011;50120;53.250;8.702;2022-08-02T03:09:59;8.02;;;3.53;;
41964;SDS011;50120;53.250;8.702;2022-08-02T03:12:26;9.63;;;3.20;;
41964;SDS011;50120;53.250;8.702;2022-08-02T03:14:53;8.45;;;3.17;;
41964;SDS011;50120;53.250;8.702;2022-08-02T03:17:19;5.47;;;3.20;;
41964;SDS011;50120;53.250;8.702;2022-08-02T03:19:45;7.13;;;2.97;;
41964;SDS011;50120;53.250;8.702;2022-08-02T03:22:10;5.10;;;3.20;;
41964;SDS011;50120;53.250;8.702;2022-08-02T03:24:36;6.50;;;2.83;;
41964;SDS011;50120;53.250;8.702;2022-08-02T03:27:02;5.07;;;3.10;;
41964;SDS011;50120;53.250;8.702;2022-08-02T03:29:28;6.55;;;3.30;;
41964;SDS011;50120;53.250;8.702;2022-08-02T03:31:54;6.53;;;3.13;;
41964;SDS011;50120;53.250;8.702;2022-08-02T03:34:20;8.90;;;3.03;;
41964;SDS011;50120;53.250;8.702;2022-08-02T03:36:47;9.00;;;3.25;;
41964;SDS011;50120;53.250;8.702;2022-08-02T03:39:16;10.00;;;3.13;;
41964;SDS011;50120;53.250;8.702;2022-08-02T03:41:44;5.95;;;2.90;;
41964;SDS011;50120;53.250;8.702;2022-08-02T03:44:11;7.85;;;3.60;;
41964;SDS011;50120;53.250;8.702;2022-08-02T03:46:37;9.43;;;3.88;;
41964;SDS011;50120;53.250;8.702;2022-08-02T03:49:06;7.75;;;3.28;;
41964;SDS011;50120;53.250;8.702;2022-08-02T03:51:34;5.30;;;2.80;;
41964;SDS011;50120;53.250;8.702;2022-08-02T03:54:00;7.57;;;3.35;;
41964;SDS011;50120;53.250;8.702;2022-08-02T03:56:27;5.75;;;3.38;;
41964;SDS011;50120;53.250;8.702;2022-08-02T03:59:10;9.85;;;3.45;;
41964;SDS011;50120;53.250;8.702;2022-08-02T04:01:38;7.38;;;2.92;;
41964;SDS011;50120;53.250;8.702;2022-08-02T04:04:05;6.68;;;3.40;;
41964;SDS011;50120;53.250;8.702;2022-08-02T04:06:31;7.15;;;3.38;;
41964;SDS011;50120;53.250;8.702;2022-08-02T04:08:57;8.23;;;3.63;;
41964;SDS011;50120;53.250;8.702;2022-08-02T04:11:23;9.98;;;3.97;;
41964;SDS011;50120;53.250;8.702;2022-08-02T04:13:55;8.98;;;3.58;;
41964;SDS011;50120;53.250;8.702;2022-08-02T04:16:22;6.30;;;3.50;;
41964;SDS011;50120;53.250;8.702;2022-08-02T04:19:04;7.40;;;4.25;;
41964;SDS011;50120;53.250;8.702;2022-08-02T04:21:34;11.10;;;4.45;;
41964;SDS011;50120;53.250;8.702;2022-08-02T04:24:03;7.45;;;4.25;;
41964;SDS011;50120;53.250;8.702;2022-08-02T04:26:30;8.50;;;4.20;;
41964;SDS011;50120;53.250;8.702;2022-08-02T04:28:58;10.13;;;3.80;;
41964;SDS011;50120;53.250;8.702;2022-08-02T04:31:25;6.60;;;3.70;;
41964;SDS011;50120;53.250;8.702;2022-08-02T04:33:51;8.27;;;4.10;;
41964;SDS011;50120;53.250;8.702;2022-08-02T04:36:17;9.50;;;3.85;;
41964;SDS011;50120;53.250;8.702;2022-08-02T04:38:43;9.32;;;4.10;;
41964;SDS011;50120;53.250;8.702;2022-08-02T04:41:09;8.95;;;4.28;;
41964;SDS011;50120;53.250;8.702;2022-08-02T04:43:34;9.43;;;4.10;;
41964;SDS011;50120;53.250;8.702;2022-08-02T04:46:00;8.27;;;4.60;;
41964;SDS011;50120;53.250;8.702;2022-08-02T04:48:27;13.63;;;4.78;;
41964;SDS011;50120;53.250;8.702;2022-08-02T04:50:53;10.10;;;4.43;;
41964;SDS011;50120;53.250;8.702;2022-08-02T04:53:19;9.85;;;4.57;;
41964;SDS011;50120;53.250;8.702;2022-08-02T04:55:45;11.05;;;5.03;;
41964;SDS011;50120;53.250;8.702;2022-08-02T04:58:11;11.45;;;4.60;;
41964;SDS011;50120;53.250;8.702;2022-08-02T05:00:37;13.85;;;4.82;;
41964;SDS011;50120;53.250;8.702;2022-08-02T05:03:03;10.55;;;4.90;;
41964;SDS011;50120;53.250;8.702;2022-08-02T05:05:29;9.85;;;4.60;;
41964;SDS011;50120;53.250;8.702;2022-08-02T05:07:54;9.00;;;4.80;;
41964;SDS011;50120;53.250;8.702;2022-08-02T05:10:21;12.38;;;4.40;;
41964;SDS011;50120;53.250;8.702;2022-08-02T05:12:47;11.40;;;5.07;;
41964;SDS011;50120;53.250;8.702;2022-08-02T05:15:13;9.48;;;4.50;;
41964;SDS011;50120;53.250;8.702;2022-08-02T05:17:43;10.70;;;4.68;;
41964;SDS011;50120;53.250;8.702;2022-08-02T05:20:09;9.80;;;5.05;;
41964;SDS011;50120;53.250;8.702;2022-08-02T05:22:39;11.90;;;4.90;;
41964;SDS011;50120;53.250;8.702;2022-08-02T05:25:05;13.57;;;4.82;;
41964;SDS011;50120;53.250;8.702;2022-08-02T05:27:31;10.57;;;5.00;;
41964;SDS011;50120;53.250;8.702;2022-08-02T05:29:57;12.55;;;4.97;;
41964;SDS011;50120;53.250;8.702;2022-08-02T05:32:24;14.38;;;5.55;;
41964;SDS011;50120;53.250;8.702;2022-08-02T05:34:50;7.55;;;5.18;;
41964;SDS011;50120;53.250;8.702;2022-08-02T05:37:16;11.75;;;5.53;;
41964;SDS011;50120;53.250;8.702;2022-08-02T05:39:42;12.93;;;4.97;;
41964;SDS011;50120;53.250;8.702;2022-08-02T05:42:08;11.00;;;5.53;;
41964;SDS011;50120;53.250;8.702;2022-08-02T05:44:35;12.52;;;5.03;;
41964;SDS011;50120;53.250;8.702;2022-08-02T05:47:00;12.23;;;5.03;;
41964;SDS011;50120;53.250;8.702;2022-08-02T05:49:26;10.43;;;4.63;;
41964;SDS011;50120;53.250;8.702;2022-08-02T05:51:59;11.88;;;5.05;;
41964;SDS011;50120;53.250;8.702;2022-08-02T05:54:53;16.58;;;5.00;;
41964;SDS011;50120;53.250;8.702;2022-08-02T06:00:20;10.70;;;4.60;;
41964;SDS011;50120;53.250;8.702;2022-08-02T06:05:29;13.48;;;4.20;;
41964;SDS011;50120;53.250;8.702;2022-08-02T06:07:58;15.60;;;4.50;;
41964;SDS011;50120;53.250;8.702;2022-08-02T06:10:25;15.48;;;3.70;;
41964;SDS011;50120;53.250;8.702;2022-08-02T06:13:04;7.97;;;3.63;;
41964;SDS011;50120;53.250;8.702;2022-08-02T06:15:33;6.93;;;3.60;;
41964;SDS011;50120;53.250;8.702;2022-08-02T06:18:00;10.32;;;3.30;;
41964;SDS011;50120;53.250;8.702;2022-08-02T06:20:27;20.23;;;3.92;;
41964;SDS011;50120;53.250;8.702;2022-08-02T06:22:59;10.38;;;3.05;;
41964;SDS011;50120;53.250;8.702;2022-08-02T06:25:27;12.23;;;3.45;;
41964;SDS011;50120;53.250;8.702;2022-08-02T06:27:53;12.93;;;3.40;;
41964;SDS011;50120;53.250;8.702;2022-08-02T06:30:20;11.13;;;2.92;;
41964;SDS011;50120;53.250;8.702;2022-08-02T06:32:47;8.10;;;2.92;;
41964;SDS011;50120;53.250;8.702;2022-08-02T06:35:14;6.53;;;2.78;;
41964;SDS011;50120;53.250;8.702;2022-08-02T06:37:43;10.20;;;3.28;;
41964;SDS011;50120;53.250;8.702;2022-08-02T06:40:25;7.30;;;3.03;;
41964;SDS011;50120;53.250;8.702;2022-08-02T06:45:37;12.05;;;3.50;;
41964;SDS011;50120;53.250;8.702;2022-08-02T06:48:04;9.85;;;3.50;;
41964;SDS011;50120;53.250;8.702;2022-08-02T06:50:31;13.70;;;3.88;;
41964;SDS011;50120;53.250;8.702;2022-08-02T06:52:57;14.25;;;3.20;;
41964;SDS011;50120;53.250;8.702;2022-08-02T06:55:23;11.48;;;2.92;;
41964;SDS011;50120;53.250;8.702;2022-08-02T06:57:48;11.02;;;3.80;;
41964;SDS011;50120;53.250;8.702;2022-08-02T07:00:14;17.45;;;3.65;;
41964;SDS011;50120;53.250;8.702;2022-08-02T07:02:40;10.75;;;3.50;;
41964;SDS011;50120;53.250;8.702;2022-08-02T07:05:06;8.82;;;3.33;;
41964;SDS011;50120;53.250;8.702;2022-08-02T07:07:33;12.38;;;3.58;;
41964;SDS011;50120;53.250;8.702;2022-08-02T07:09:59;13.32;;;3.20;;
41964;SDS011;50120;53.250;8.702;2022-08-02T07:12:25;11.88;;;3.60;;
41964;SDS011;50120;53.250;8.702;2022-08-02T07:14:51;6.13;;;2.88;;
41964;SDS011;50120;53.250;8.702;2022-08-02T07:17:16;8.18;;;3.13;;
41964;SDS011;50120;53.250;8.702;2022-08-02T07:19:42;14.05;;;4.15;;
41964;SDS011;50120;53.250;8.702;2022-08-02T07:22:08;14.52;;;4.22;;
41964;SDS011;50120;53.250;8.702;2022-08-02T07:24:34;8.45;;;3.33;;
41964;SDS011;50120;53.250;8.702;2022-08-02T07:27:00;16.58;;;3.50;;
41964;SDS011;50120;53.250;8.702;2022-08-02T07:29:26;10.35;;;3.42;;
41964;SDS011;50120;53.250;8.702;2022-08-02T07:31:52;9.73;;;3.42;;
41964;SDS011;50120;53.250;8.702;2022-08-02T07:34:17;10.88;;;4.60;;
41964;SDS011;50120;53.250;8.702;2022-08-02T07:36:43;6.70;;;3.08;;
41964;SDS011;50120;53.250;8.702;2022-08-02T07:39:09;8.52;;;3.33;;
41964;SDS011;50120;53.250;8.702;2022-08-02T07:41:35;12.73;;;3.58;;
41964;SDS011;50120;53.250;8.702;2022-08-02T07:44:00;11.10;;;3.67;;
41964;SDS011;50120;53.250;8.702;2022-08-02T07:46:26;14.60;;;3.50;;
41964;SDS011;50120;53.250;8.702;2022-08-02T07:48:52;11.93;;;3.60;;
41964;SDS011;50120;53.250;8.702;2022-08-02T07:51:19;14.77;;;3.70;;
41964;SDS011;50120;53.250;8.702;2022-08-02T07:53:45;9.20;;;3.20;;
41964;SDS011;50120;53.250;8.702;2022-08-02T07:56:11;11.40;;;3.30;;
41964;SDS011;50120;53.250;8.702;2022-08-02T07:58:37;15.80;;;3.65;;
41964;SDS011;50120;53.250;8.702;2022-08-02T08:01:02;6.30;;;2.90;;
41964;SDS011;50120;53.250;8.702;2022-08-02T08:03:28;6.57;;;2.70;;
41964;SDS011;50120;53.250;8.702;2022-08-02T08:05:54;12.15;;;3.33;;
41964;SDS011;50120;53.250;8.702;2022-08-02T08:08:19;11.10;;;2.88;;
41964;SDS011;50120;53.250;8.702;2022-08-02T08:10:46;10.43;;;2.67;;
41964;SDS011;50120;53.250;8.702;2022-08-02T08:13:11;7.43;;;2.67;;
41964;SDS011;50120;53.250;8.702;2022-08-02T08:15:37;8.15;;;2.83;;
41964;SDS011;50120;53.250;8.702;2022-08-02T08:18:03;12.07;;;2.55;;
41964;SDS011;50120;53.250;8.702;2022-08-02T08:20:29;9.60;;;2.67;;
41964;SDS011;50120;53.250;8.702;2022-08-02T08:22:55;11.10;;;2.80;;
41964;SDS011;50120;53.250;8.702;2022-08-02T08:25:20;6.95;;;2.40;;
41964;SDS011;50120;53.250;8.702;2022-08-02T08:27:50;6.00;;;2.35;;
41964;SDS011;50120;53.250;8.702;2022-08-02T08:30:16;9.70;;;2.40;;
41964;SDS011;50120;53.250;8.702;2022-08-02T08:32:43;10.43;;;2.80;;
41964;SDS011;50120;53.250;8.702;2022-08-02T08:35:10;7.75;;;2.42;;
41964;SDS011;50120;53.250;8.702;2022-08-02T08:37:36;6.05;;;2.72;;
41964;SDS011;50120;53.250;8.702;2022-08-02T08:40:09;9.00;;;3.03;;
41964;SDS011;50120;53.250;8.702;2022-08-02T08:42:36;10.43;;;2.90;;
41964;SDS011;50120;53.250;8.702;2022-08-02T08:45:03;13.10;;;3.40;;
41964;SDS011;50120;53.250;8.702;2022-08-02T08:47:40;8.82;;;3.00;;
41964;SDS011;50120;53.250;8.702;2022-08-02T08:50:07;7.60;;;2.67;;
41964;SDS011;50120;53.250;8.702;2022-08-02T08:53:00;6.57;;;2.50;;
41964;SDS011;50120;53.250;8.702;2022-08-02T08:55:24;8.50;;;2.58;;
41964;SDS011;50120;53.250;8.702;2022-08-02T08:57:51;15.02;;;2.25;;
41964;SDS011;50120;53.250;8.702;2022-08-02T09:00:19;6.40;;;2.13;;
41964;SDS011;50120;53.250;8.702;2022-08-02T09:02:45;11.95;;;2.00;;
41964;SDS011;50120;53.250;8.702;2022-08-02T09:05:13;4.97;;;1.35;;
41964;SDS011;50120;53.250;8.702;2022-08-02T09:07:40;5.45;;;2.70;;
41964;SDS011;50120;53.250;8.702;2022-08-02T09:15:35;4.82;;;2.30;;
41964;SDS011;50120;53.250;8.702;2022-08-02T09:18:05;5.95;;;2.10;;
41964;SDS011;50120;53.250;8.702;2022-08-02T09:20:32;9.90;;;2.70;;
41964;SDS011;50120;53.250;8.702;2022-08-02T09:23:05;10.10;;;4.75;;
41964;SDS011;50120;53.250;8.702;2022-08-02T09:25:33;12.30;;;4.15;;
41964;SDS011;50120;53.250;8.702;2022-08-02T09:28:00;6.68;;;2.63;;
41964;SDS011;50120;53.250;8.702;2022-08-02T09:30:28;4.47;;;1.52;;
41964;SDS011;50120;53.250;8.702;2022-08-02T09:32:53;3.08;;;1.27;;
41964;SDS011;50120;53.250;8.702;2022-08-02T09:38:22;5.97;;;1.55;;
41964;SDS011;50120;53.250;8.702;2022-08-02T09:40:48;5.85;;;1.50;;
41964;SDS011;50120;53.250;8.702;2022-08-02T09:43:14;3.65;;;1.23;;
41964;SDS011;50120;53.250;8.702;2022-08-02T09:45:41;5.07;;;1.42;;
41964;SDS011;50120;53.250;8.702;2022-08-02T09:48:07;5.45;;;1.73;;
41964;SDS011;50120;53.250;8.702;2022-08-02T09:50:36;3.80;;;1.40;;
41964;SDS011;50120;53.250;8.702;2022-08-02T09:53:04;4.80;;;1.38;;
41964;SDS011;50120;53.250;8.702;2022-08-02T09:55:30;3.70;;;2.03;;
41964;SDS011;50120;53.250;8.702;2022-08-02T09:57:56;5.80;;;2.00;;
41964;SDS011;50120;53.250;8.702;2022-08-02T10:00:22;3.72;;;1.42;;
41964;SDS011;50120;53.250;8.702;2022-08-02T10:03:04;4.75;;;1.42;;
41964;SDS011;50120;53.250;8.702;2022-08-02T10:05:44;3.80;;;1.50;;
41964;SDS011;50120;53.250;8.702;2022-08-02T10:08:13;6.55;;;1.88;;
41964;SDS011;50120;53.250;8.702;2022-08-02T10:10:40;5.50;;;1.35;;
41964;SDS011;50120;53.250;8.702;2022-08-02T10:13:07;2.75;;;1.50;;
41964;SDS011;50120;53.250;8.702;2022-08-02T10:15:34;3.30;;;1.20;;
41964;SDS011;50120;53.250;8.702;2022-08-02T10:18:02;2.20;;;1.05;;
41964;SDS011;50120;53.250;8.702;2022-08-02T10:20:29;3.75;;;1.20;;
41964;SDS011;50120;53.250;8.702;2022-08-02T10:23:07;7.10;;;1.20;;
41964;SDS011;50120;53.250;8.702;2022-08-02T10:25:37;1.73;;;1.00;;
41964;SDS011;50120;53.250;8.702;2022-08-02T10:28:05;4.25;;;1.10;;
41964;SDS011;50120;53.250;8.702;2022-08-02T10:30:33;8.80;;;1.20;;
41964;SDS011;50120;53.250;8.702;2022-08-02T10:33:03;4.65;;;1.20;;
41964;SDS011;50120;53.250;8.702;2022-08-02T10:35:35;3.85;;;1.92;;
41964;SDS011;50120;53.250;8.702;2022-08-02T10:38:06;3.03;;;1.38;;
41964;SDS011;50120;53.250;8.702;2022-08-02T10:41:08;5.15;;;1.15;;
41964;SDS011;50120;53.250;8.702;2022-08-02T10:54:19;6.65;;;0.95;;
41964;SDS011;50120;53.250;8.702;2022-08-02T10:56:48;2.00;;;0.90;;
41964;SDS011;50120;53.250;8.702;2022-08-02T10:59:49;1.65;;;1.10;;
41964;SDS011;50120;53.250;8.702;2022-08-02T11:02:08;2.70;;;1.30;;
41964;SDS011;50120;53.250;8.702;2022-08-02T11:07:14;4.45;;;1.15;;
41964;SDS011;50120;53.250;8.702;2022-08-02T11:09:46;3.22;;;1.10;;
41964;SDS011;50120;53.250;8.702;2022-08-02T11:12:14;5.10;;;1.10;;
41964;SDS011;50120;53.250;8.702;2022-08-02T11:14:42;1.85;;;1.00;;
41964;SDS011;50120;53.250;8.702;2022-08-02T11:17:16;3.15;;;1.00;;
41964;SDS011;50120;53.250;8.702;2022-08-02T11:22:36;6.18;;;1.60;;
41964;SDS011;50120;53.250;8.702;2022-08-02T11:27:51;1.63;;;1.00;;
41964;SDS011;50120;53.250;8.702;2022-08-02T11:30:18;5.18;;;1.08;;
41964;SDS011;50120;53.250;8.702;2022-08-02T11:32:44;3.47;;;1.08;;
41964;SDS011;50120;53.250;8.702;2022-08-02T11:35:10;4.90;;;2.05;;
41964;SDS011;50120;53.250;8.702;2022-08-02T11:37:37;2.78;;;1.20;;
41964;SDS011;50120;53.250;8.702;2022-08-02T11:40:05;3.80;;;1.20;;
41964;SDS011;50120;53.250;8.702;2022-08-02T11:42:34;4.30;;;1.25;;
41964;SDS011;50120;53.250;8.702;2022-08-02T11:45:01;3.15;;;1.30;;
41964;SDS011;50120;53.250;8.702;2022-08-02T11:47:44;2.65;;;1.27;;
41964;SDS011;50120;53.250;8.702;2022-08-02T11:50:11;2.47;;;1.23;;
41964;SDS011;50120;53.250;8.702;2022-08-02T11:52:37;3.95;;;1.30;;
41964;SDS011;50120;53.250;8.702;2022-08-02T11:55:06;2.83;;;1.38;;
41964;SDS011;50120;53.250;8.702;2022-08-02T11:57:33;2.95;;;1.50;;
41964;SDS011;50120;53.250;8.702;2022-08-02T11:59:59;3.15;;;1.13;;
41964;SDS011;50120;53.250;8.702;2022-08-02T12:02:27;3.08;;;1.20;;
41964;SDS011;50120;53.250;8.702;2022-08-02T12:04:56;2.85;;;1.30;;
41964;SDS011;50120;53.250;8.702;2022-08-02T12:07:30;2.63;;;1.30;;
41964;SDS011;50120;53.250;8.702;2022-08-02T12:10:07;4.55;;;2.15;;
41964;SDS011;50120;53.250;8.702;2022-08-02T12:15:14;2.92;;;1.77;;
41964;SDS011;50120;53.250;8.702;2022-08-02T12:17:53;3.03;;;2.28;;
41964;SDS011;50120;53.250;8.702;2022-08-02T12:20:41;3.63;;;1.80;;
41964;SDS011;50120;53.250;8.702;2022-08-02T12:23:07;3.67;;;1.30;;
41964;SDS011;50120;53.250;8.702;2022-08-02T12:25:33;2.60;;;1.30;;
41964;SDS011;50120;53.250;8.702;2022-08-02T12:28:18;7.40;;;3.38;;
41964;SDS011;50120;53.250;8.702;2022-08-02T12:30:56;3.30;;;1.90;;
41964;SDS011;50120;53.250;8.702;2022-08-02T12:33:24;4.93;;;1.98;;
41964;SDS011;50120;53.250;8.702;2022-08-02T12:35:52;3.50;;;1.70;;
41964;SDS011;50120;53.250;8.702;2022-08-02T12:38:18;4.70;;;1.52;;
41964;SDS011;50120;53.250;8.702;2022-08-02T12:40:44;1.77;;;1.40;;
41964;SDS011;50120;53.250;8.702;2022-08-02T12:43:17;3.85;;;1.20;;
41964;SDS011;50120;53.250;8.702;2022-08-02T12:48:15;3.28;;;1.55;;
41964;SDS011;50120;53.250;8.702;2022-08-02T12:50:54;4.93;;;1.58;;
41964;SDS011;50120;53.250;8.702;2022-08-02T12:53:20;2.50;;;1.30;;
41964;SDS011;50120;53.250;8.702;2022-08-02T12:55:55;2.90;;;1.55;;
41964;SDS011;50120;53.250;8.702;2022-08-02T12:58:22;2.50;;;1.60;;
41964;SDS011;50120;53.250;8.702;2022-08-02T13:00:55;2.72;;;1.65;;
41964;SDS011;50120;53.250;8.702;2022-08-02T13:03:22;6.03;;;1.83;;
41964;SDS011;50120;53.250;8.702;2022-08-02T13:05:49;3.95;;;1.50;;
41964;SDS011;50120;53.250;8.702;2022-08-02T13:08:15;3.00;;;1.52;;
41964;SDS011;50120;53.250;8.702;2022-08-02T13:10:41;3.95;;;1.40;;
41964;SDS011;50120;53.250;8.702;2022-08-02T13:13:07;3.58;;;1.50;;
41964;SDS011;50120;53.250;8.702;2022-08-02T13:15:33;3.88;;;2.10;;
41964;SDS011;50120;53.250;8.702;2022-08-02T13:17:58;3.80;;;2.15;;
41964;SDS011;50120;53.250;8.702;2022-08-02T13:20:25;2.15;;;1.70;;
41964;SDS011;50120;53.250;8.702;2022-08-02T13:22:52;2.58;;;1.50;;
41964;SDS011;50120;53.250;8.702;2022-08-02T13:25:18;6.78;;;1.77;;
41964;SDS011;50120;53.250;8.702;2022-08-02T13:27:47;4.35;;;1.73;;
41964;SDS011;50120;53.250;8.702;2022-08-02T13:30:13;3.90;;;1.63;;
41964;SDS011;50120;53.250;8.702;2022-08-02T13:32:39;3.88;;;1.52;;
41964;SDS011;50120;53.250;8.702;2022-08-02T13:35:05;2.95;;;1.60;;
41964;SDS011;50120;53.250;8.702;2022-08-02T13:37:31;2.90;;;1.80;;
41964;SDS011;50120;53.250;8.702;2022-08-02T13:39:56;4.95;;;1.60;;
41964;SDS011;50120;53.250;8.702;2022-08-02T13:42:22;3.20;;;1.67;;
41964;SDS011;50120;53.250;8.702;2022-08-02T13:44:48;2.78;;;1.58;;
41964;SDS011;50120;53.250;8.702;2022-08-02T13:47:14;6.35;;;1.80;;
41964;SDS011;50120;53.250;8.702;2022-08-02T13:49:39;2.90;;;1.63;;
41964;SDS011;50120;53.250;8.702;2022-08-02T13:52:05;3.28;;;1.70;;
41964;SDS011;50120;53.250;8.702;2022-08-02T13:54:31;2.60;;;1.60;;
41964;SDS011;50120;53.250;8.702;2022-08-02T13:56:57;2.30;;;1.40;;
41964;SDS011;50120;53.250;8.702;2022-08-02T13:59:25;2.97;;;1.48;;
41964;SDS011;50120;53.250;8.702;2022-08-02T14:01:51;2.42;;;1.50;;
41964;SDS011;50120;53.250;8.702;2022-08-02T14:04:17;5.00;;;2.10;;
41964;SDS011;50120;53.250;8.702;2022-08-02T14:06:43;5.25;;;1.70;;
41964;SDS011;50120;53.250;8.702;2022-08-02T14:09:08;2.83;;;1.60;;
41964;SDS011;50120;53.250;8.702;2022-08-02T14:11:34;5.63;;;1.60;;
41964;SDS011;50120;53.250;8.702;2022-08-02T14:14:00;5.10;;;1.98;;
41964;SDS011;50120;53.250;8.702;2022-08-02T14:16:25;2.50;;;1.50;;
41964;SDS011;50120;53.250;8.702;2022-08-02T14:18:51;3.90;;;1.67;;
41964;SDS011;50120;53.250;8.702;2022-08-02T14:21:17;3.15;;;1.70;;
41964;SDS011;50120;53.250;8.702;2022-08-02T14:23:42;3.30;;;1.63;;
41964;SDS011;50120;53.250;8.702;2022-08-02T14:26:08;4.65;;;1.83;;
41964;SDS011;50120;53.250;8.702;2022-08-02T14:28:37;3.47;;;1.80;;
41964;SDS011;50120;53.250;8.702;2022-08-02T14:31:03;5.18;;;1.80;;
41964;SDS011;50120;53.250;8.702;2022-08-02T14:33:29;4.60;;;1.70;;
41964;SDS011;50120;53.250;8.702;2022-08-02T14:35:55;3.70;;;1.98;;
41964;SDS011;50120;53.250;8.702;2022-08-02T14:38:21;4.97;;;1.60;;
41964;SDS011;50120;53.250;8.702;2022-08-02T14:40:47;3.50;;;1.80;;
41964;SDS011;50120;53.250;8.702;2022-08-02T14:43:13;1.90;;;1.50;;
41964;SDS011;50120;53.250;8.702;2022-08-02T14:45:59;4.15;;;1.83;;
41964;SDS011;50120;53.250;8.702;2022-08-02T14:48:25;2.40;;;1.60;;
41964;SDS011;50120;53.250;8.702;2022-08-02T14:50:52;2.63;;;1.90;;
41964;SDS011;50120;53.250;8.702;2022-08-02T14:53:18;2.63;;;1.80;;
41964;SDS011;50120;53.250;8.702;2022-08-02T14:55:43;3.15;;;1.63;;
41964;SDS011;50120;53.250;8.702;2022-08-02T14:58:09;3.35;;;1.70;;
41964;SDS011;50120;53.250;8.702;2022-08-02T15:00:36;6.93;;;1.88;;
41964;SDS011;50120;53.250;8.702;2022-08-02T15:03:02;5.32;;;1.90;;
41964;SDS011;50120;53.250;8.702;2022-08-02T15:05:27;4.95;;;1.65;;
41964;SDS011;50120;53.250;8.702;2022-08-02T15:07:53;3.83;;;1.77;;
41964;SDS011;50120;53.250;8.702;2022-08-02T15:10:19;4.38;;;1.75;;
41964;SDS011;50120;53.250;8.702;2022-08-02T15:12:44;2.28;;;1.50;;
41964;SDS011;50120;53.250;8.702;2022-08-02T15:15:10;4.18;;;1.60;;
41964;SDS011;50120;53.250;8.702;2022-08-02T15:17:36;3.40;;;1.90;;
41964;SDS011;50120;53.250;8.702;2022-08-02T15:20:02;3.10;;;1.50;;
41964;SDS011;50120;53.250;8.702;2022-08-02T15:22:28;3.30;;;2.05;;
41964;SDS011;50120;53.250;8.702;2022-08-02T15:24:54;3.08;;;1.70;;
41964;SDS011;50120;53.250;8.702;2022-08-02T15:27:20;2.22;;;1.77;;
41964;SDS011;50120;53.250;8.702;2022-08-02T15:29:45;3.15;;;1.85;;
41964;SDS011;50120;53.250;8.702;2022-08-02T15:32:11;2.97;;;1.85;;
41964;SDS011;50120;53.250;8.702;2022-08-02T15:34:38;4.90;;;1.92;;
41964;SDS011;50120;53.250;8.702;2022-08-02T15:37:04;3.15;;;1.90;;
41964;SDS011;50120;53.250;8.702;2022-08-02T15:39:29;3.38;;;2.05;;
41964;SDS011;50120;53.250;8.702;2022-08-02T15:41:55;3.53;;;2.08;;